Time;durP1;ratioP1;P1;durP2;ratioP2;P2;SDS_P1;SDS_P2;PMS_P1;PMS_P2;Temp;Humidity;BMP_temperature;BMP_pressure;BME280_temperature;BME280_humidity;BME280_pressure;Samples;Min_cycle;Max_cycle;Signal;HPM_P1;HPM_P2
2022/01/19 00:02:00;;;;;;;13.48;4.38;;;;;;;;;;4934242;29;20700;-60
2022/01/19 00:04:27;;;;;;;11.80;4.43;;;;;;;;;;4935003;29;20090;-60
2022/01/19 00:06:53;;;;;;;7.97;4.20;;;;;;;;;;4941444;29;20572;-59
2022/01/19 00:09:23;;;;;;;11.40;5.05;;;;;;;;;;4938069;29;20138;-61
2022/01/19 00:11:50;;;;;;;13.57;4.40;;;;;;;;;;4944231;29;20416;-59
2022/01/19 00:14:16;;;;;;;11.90;4.55;;;;;;;;;;4940717;29;20440;-61
2022/01/19 00:16:43;;;;;;;10.88;3.70;;;;;;;;;;4946011;29;20138;-61
2022/01/19 00:19:09;;;;;;;9.98;3.88;;;;;;;;;;4944945;29;20043;-60
2022/01/19 00:21:36;;;;;;;12.60;4.47;;;;;;;;;;4944642;29;20062;-60
2022/01/19 00:24:02;;;;;;;10.70;4.35;;;;;;;;;;4943556;29;20135;-59
2022/01/19 00:26:30;;;;;;;14.13;4.57;;;;;;;;;;4942319;29;20074;-61
2022/01/19 00:28:58;;;;;;;10.75;4.20;;;;;;;;;;4943711;29;20130;-61
2022/01/19 00:31:24;;;;;;;8.13;4.10;;;;;;;;;;4939985;29;20071;-61
2022/01/19 00:33:51;;;;;;;9.45;4.30;;;;;;;;;;4943312;29;20492;-59
2022/01/19 00:36:17;;;;;;;10.43;3.83;;;;;;;;;;4948646;29;20078;-61
2022/01/19 00:38:44;;;;;;;18.58;4.32;;;;;;;;;;4943515;29;20071;-61
2022/01/19 00:41:11;;;;;;;8.35;3.58;;;;;;;;;;4948320;29;20154;-59
2022/01/19 00:43:38;;;;;;;7.00;4.03;;;;;;;;;;4949075;29;20106;-60
2022/01/19 00:46:05;;;;;;;8.75;4.22;;;;;;;;;;4943078;29;20126;-59
2022/01/19 00:48:31;;;;;;;10.45;4.03;;;;;;;;;;4947182;28;20135;-60
2022/01/19 00:50:58;;;;;;;9.40;3.92;;;;;;;;;;4947937;29;20186;-60
2022/01/19 00:53:25;;;;;;;10.30;3.88;;;;;;;;;;4944991;29;20551;-59
2022/01/19 00:55:52;;;;;;;9.75;3.75;;;;;;;;;;4946821;29;20481;-59
2022/01/19 00:58:18;;;;;;;10.13;4.10;;;;;;;;;;4947301;29;20090;-61
2022/01/19 01:00:46;;;;;;;8.05;3.60;;;;;;;;;;4947840;28;20720;-61
2022/01/19 01:03:13;;;;;;;7.10;3.85;;;;;;;;;;4947514;29;20078;-59
2022/01/19 01:05:39;;;;;;;11.95;3.70;;;;;;;;;;4939781;29;20134;-61
2022/01/19 01:08:06;;;;;;;8.60;3.50;;;;;;;;;;4948397;29;20058;-58
2022/01/19 01:10:41;;;;;;;13.48;3.95;;;;;;;;;;4945167;29;20130;-61
2022/01/19 01:13:20;;;;;;;8.98;3.83;;;;;;;;;;4934541;29;20070;-61
2022/01/19 01:16:00;;;;;;;8.73;3.25;;;;;;;;;;4949055;29;20039;-61
2022/01/19 01:18:28;;;;;;;8.27;3.70;;;;;;;;;;4942638;29;20050;-60
2022/01/19 01:20:56;;;;;;;8.50;3.38;;;;;;;;;;4945346;29;20071;-61
2022/01/19 01:23:25;;;;;;;8.38;3.83;;;;;;;;;;4930379;29;20131;-61
2022/01/19 01:25:52;;;;;;;7.95;4.15;;;;;;;;;;4944902;29;20468;-61
2022/01/19 01:28:19;;;;;;;8.60;3.53;;;;;;;;;;4944201;29;20142;-61
2022/01/19 01:30:46;;;;;;;7.82;3.60;;;;;;;;;;4946572;29;20255;-61
2022/01/19 01:33:14;;;;;;;8.00;3.63;;;;;;;;;;4947170;29;20155;-61
2022/01/19 01:35:41;;;;;;;7.22;3.03;;;;;;;;;;4946472;29;20082;-59
2022/01/19 01:38:08;;;;;;;6.03;3.33;;;;;;;;;;4941391;29;20251;-58
2022/01/19 01:40:36;;;;;;;11.02;4.43;;;;;;;;;;4946863;29;20516;-60
2022/01/19 01:43:05;;;;;;;13.05;4.43;;;;;;;;;;4948679;29;20453;-60
2022/01/19 01:45:34;;;;;;;9.80;4.32;;;;;;;;;;4944468;28;20083;-60
2022/01/19 01:48:09;;;;;;;6.95;2.78;;;;;;;;;;4948934;29;20043;-61
2022/01/19 01:53:29;;;;;;;12.88;4.38;;;;;;;;;;4945465;29;20174;-60
2022/01/19 01:56:00;;;;;;;10.73;4.88;;;;;;;;;;4944754;28;20063;-60
2022/01/19 01:58:27;;;;;;;13.90;5.07;;;;;;;;;;4942471;29;20050;-60
2022/01/19 02:00:54;;;;;;;11.48;4.63;;;;;;;;;;4942625;29;20094;-60
2022/01/19 02:03:21;;;;;;;12.30;4.35;;;;;;;;;;4946994;29;20134;-59
2022/01/19 02:08:43;;;;;;;9.63;3.47;;;;;;;;;;4947076;29;20129;-57
2022/01/19 02:16:46;;;;;;;13.30;4.38;;;;;;;;;;4947578;29;20047;-59
2022/01/19 02:22:06;;;;;;;6.70;3.53;;;;;;;;;;4948646;29;20186;-61
2022/01/19 02:24:42;;;;;;;9.60;3.35;;;;;;;;;;4941690;29;20122;-61
2022/01/19 02:27:15;;;;;;;10.70;3.22;;;;;;;;;;4944667;29;20047;-61
2022/01/19 02:30:31;;;;;;;8.23;3.15;;;;;;;;;;4940837;29;20043;-60
2022/01/19 02:41:07;;;;;;;7.88;3.63;;;;;;;;;;4945296;29;20396;-61
2022/01/19 02:43:34;;;;;;;9.15;3.45;;;;;;;;;;4943219;29;20078;-61
2022/01/19 02:51:28;;;;;;;16.65;5.97;;;;;;;;;;4945360;29;20121;-59
2022/01/19 02:53:56;;;;;;;12.60;4.68;;;;;;;;;;4943292;29;20067;-60
2022/01/19 02:56:26;;;;;;;11.27;4.22;;;;;;;;;;4945813;28;20091;-59
2022/01/19 02:58:59;;;;;;;11.93;4.10;;;;;;;;;;4942000;29;20058;-59
2022/01/19 03:09:40;;;;;;;8.98;3.10;;;;;;;;;;4945845;29;20106;-60
2022/01/19 03:12:07;;;;;;;7.70;2.83;;;;;;;;;;4948498;29;20134;-60
2022/01/19 03:14:34;;;;;;;10.55;3.60;;;;;;;;;;4946203;29;20070;-56
2022/01/19 03:17:00;;;;;;;9.70;4.05;;;;;;;;;;4941485;29;20127;-59
2022/01/19 03:19:29;;;;;;;7.88;4.07;;;;;;;;;;4945248;29;20465;-60
2022/01/19 03:21:56;;;;;;;10.52;3.85;;;;;;;;;;4942904;29;20070;-58
2022/01/19 03:24:22;;;;;;;7.50;3.15;;;;;;;;;;4948389;28;20094;-60
2022/01/19 03:26:50;;;;;;;7.95;3.15;;;;;;;;;;4945293;29;20134;-60
2022/01/19 03:29:23;;;;;;;14.45;3.83;;;;;;;;;;4944366;29;20134;-60
2022/01/19 03:31:49;;;;;;;9.27;4.07;;;;;;;;;;4941648;29;20126;-60
2022/01/19 03:34:17;;;;;;;8.77;3.22;;;;;;;;;;4948010;29;20062;-61
2022/01/19 03:36:43;;;;;;;7.32;3.50;;;;;;;;;;4948170;29;20071;-61
2022/01/19 03:39:10;;;;;;;10.02;4.03;;;;;;;;;;4943478;29;20126;-60
2022/01/19 03:41:36;;;;;;;7.07;3.22;;;;;;;;;;4942929;29;20225;-61
2022/01/19 03:44:04;;;;;;;6.93;3.53;;;;;;;;;;4943113;29;20470;-60
2022/01/19 03:46:34;;;;;;;9.80;4.75;;;;;;;;;;4945350;29;20555;-57
2022/01/19 03:49:10;;;;;;;8.85;3.85;;;;;;;;;;4947136;29;20396;-61
2022/01/19 03:51:37;;;;;;;10.15;4.95;;;;;;;;;;4943054;28;20074;-60
2022/01/19 03:54:04;;;;;;;11.25;4.45;;;;;;;;;;4945548;29;20110;-61
2022/01/19 03:56:30;;;;;;;9.02;4.30;;;;;;;;;;4945019;29;20094;-61
2022/01/19 03:58:57;;;;;;;15.55;5.03;;;;;;;;;;4948068;29;20091;-59
2022/01/19 04:01:25;;;;;;;10.02;3.58;;;;;;;;;;4944454;29;20134;-61
2022/01/19 04:04:18;;;;;;;8.50;4.13;;;;;;;;;;4946486;29;20047;-59
2022/01/19 04:07:01;;;;;;;11.77;4.10;;;;;;;;;;4942386;29;20044;-60
2022/01/19 04:09:30;;;;;;;9.57;4.38;;;;;;;;;;4945357;29;20487;-58
2022/01/19 04:11:56;;;;;;;8.25;3.65;;;;;;;;;;4944920;29;20035;-60
2022/01/19 04:14:24;;;;;;;9.68;4.55;;;;;;;;;;4945986;29;20505;-60
2022/01/19 04:16:53;;;;;;;11.60;4.40;;;;;;;;;;4941726;29;20043;-61
2022/01/19 04:19:27;;;;;;;13.30;4.38;;;;;;;;;;4944205;29;20155;-61
2022/01/19 04:21:54;;;;;;;7.95;4.65;;;;;;;;;;4942699;29;20055;-61
2022/01/19 04:24:21;;;;;;;10.93;4.40;;;;;;;;;;4946710;29;20122;-61
2022/01/19 04:26:58;;;;;;;11.20;4.18;;;;;;;;;;4945713;29;20078;-60
2022/01/19 04:29:25;;;;;;;13.65;4.95;;;;;;;;;;4947163;29;20047;-61
2022/01/19 04:31:53;;;;;;;10.73;4.53;;;;;;;;;;4944254;29;20158;-60
2022/01/19 04:34:19;;;;;;;9.50;3.70;;;;;;;;;;4943306;29;20143;-58
2022/01/19 04:37:22;;;;;;;12.35;4.05;;;;;;;;;;4942738;29;20039;-60
2022/01/19 04:45:49;;;;;;;10.70;3.58;;;;;;;;;;4946558;29;20107;-61
2022/01/19 05:02:15;;;;;;;7.95;3.35;;;;;;;;;;4942022;29;20051;-60
2022/01/19 05:04:51;;;;;;;8.45;4.22;;;;;;;;;;4938687;29;20456;-60
2022/01/19 05:07:23;;;;;;;8.93;3.70;;;;;;;;;;4944586;29;20126;-58
2022/01/19 05:10:01;;;;;;;14.02;4.28;;;;;;;;;;4942736;29;20069;-60
2022/01/19 05:15:12;;;;;;;14.43;4.57;;;;;;;;;;4942119;29;20171;-60
2022/01/19 05:17:39;;;;;;;6.25;3.25;;;;;;;;;;4947271;29;20039;-60
2022/01/19 05:20:09;;;;;;;10.63;3.83;;;;;;;;;;4945376;28;20652;-60
2022/01/19 05:22:36;;;;;;;8.45;3.05;;;;;;;;;;4945821;29;20047;-60
2022/01/19 05:25:03;;;;;;;9.30;4.57;;;;;;;;;;4946103;29;20051;-61
2022/01/19 05:27:29;;;;;;;10.00;3.90;;;;;;;;;;4944826;29;20130;-58
2022/01/19 05:29:56;;;;;;;8.05;4.32;;;;;;;;;;4948288;29;20138;-60
2022/01/19 05:32:23;;;;;;;7.32;4.10;;;;;;;;;;4942589;29;20057;-60
2022/01/19 05:34:51;;;;;;;9.88;4.90;;;;;;;;;;4947033;29;20043;-59
2022/01/19 05:37:19;;;;;;;8.77;3.63;;;;;;;;;;4945653;29;20047;-61
2022/01/19 05:39:45;;;;;;;11.95;5.07;;;;;;;;;;4944477;29;20131;-61
2022/01/19 05:42:15;;;;;;;12.25;5.28;;;;;;;;;;4946815;29;20138;-60
2022/01/19 05:44:43;;;;;;;10.80;4.40;;;;;;;;;;4945740;29;20487;-61
2022/01/19 05:47:10;;;;;;;12.45;5.03;;;;;;;;;;4945917;28;20047;-61
2022/01/19 05:49:36;;;;;;;26.10;10.38;;;;;;;;;;4948869;29;20138;-60
2022/01/19 05:52:03;;;;;;;24.35;9.10;;;;;;;;;;4943540;29;20166;-59
2022/01/19 05:54:31;;;;;;;14.75;7.15;;;;;;;;;;4946903;29;20465;-57
2022/01/19 05:56:58;;;;;;;15.88;5.78;;;;;;;;;;4943817;29;20143;-61
2022/01/19 05:59:25;;;;;;;13.80;5.80;;;;;;;;;;4945948;29;20367;-57
2022/01/19 06:01:51;;;;;;;11.63;5.78;;;;;;;;;;4937072;29;20142;-60
2022/01/19 06:04:18;;;;;;;12.38;5.03;;;;;;;;;;4938497;29;20125;-60
2022/01/19 06:06:44;;;;;;;17.42;6.78;;;;;;;;;;4945388;29;20459;-60
2022/01/19 06:09:22;;;;;;;15.25;5.40;;;;;;;;;;4946122;29;20043;-60
2022/01/19 06:11:51;;;;;;;10.98;4.40;;;;;;;;;;4947036;29;20103;-58
2022/01/19 06:14:17;;;;;;;9.55;4.40;;;;;;;;;;4941251;29;20554;-59
2022/01/19 06:16:45;;;;;;;10.52;4.00;;;;;;;;;;4943682;29;20162;-60
2022/01/19 06:19:13;;;;;;;11.68;4.97;;;;;;;;;;4947767;29;20039;-60
2022/01/19 06:21:40;;;;;;;16.25;5.18;;;;;;;;;;4941700;29;20040;-60
2022/01/19 06:24:06;;;;;;;11.93;5.53;;;;;;;;;;4943705;29;20143;-57
2022/01/19 06:26:35;;;;;;;11.35;5.28;;;;;;;;;;4940937;29;20126;-60
2022/01/19 06:29:03;;;;;;;12.07;5.43;;;;;;;;;;4936351;29;20051;-61
2022/01/19 06:31:30;;;;;;;10.13;4.82;;;;;;;;;;4946573;28;20159;-61
2022/01/19 06:33:56;;;;;;;14.35;7.75;;;;;;;;;;4937891;29;20151;-58
2022/01/19 06:36:23;;;;;;;15.77;7.28;;;;;;;;;;4939441;29;20455;-61
2022/01/19 06:38:50;;;;;;;14.18;6.72;;;;;;;;;;4938528;29;20055;-60
2022/01/19 06:41:16;;;;;;;15.75;7.00;;;;;;;;;;4945005;29;20075;-61
2022/01/19 06:43:43;;;;;;;15.70;7.25;;;;;;;;;;4939129;29;20146;-60
2022/01/19 06:46:11;;;;;;;18.20;7.57;;;;;;;;;;4943005;29;20444;-59
2022/01/19 06:48:37;;;;;;;16.67;8.18;;;;;;;;;;4943344;28;20126;-61
2022/01/19 06:51:04;;;;;;;21.17;9.02;;;;;;;;;;4940201;29;20138;-61
2022/01/19 06:53:30;;;;;;;24.55;9.45;;;;;;;;;;4926380;29;20051;-61
2022/01/19 06:55:57;;;;;;;21.88;11.10;;;;;;;;;;4940761;29;20079;-61
2022/01/19 06:58:24;;;;;;;20.08;10.85;;;;;;;;;;4941286;29;20377;-59
2022/01/19 07:00:51;;;;;;;22.17;12.02;;;;;;;;;;4944658;29;20130;-61
2022/01/19 07:03:19;;;;;;;22.20;10.50;;;;;;;;;;4943771;29;20043;-61
2022/01/19 07:05:45;;;;;;;20.30;10.20;;;;;;;;;;4943792;29;20075;-62
2022/01/19 07:08:12;;;;;;;21.60;9.57;;;;;;;;;;4946885;29;20135;-61
2022/01/19 07:10:38;;;;;;;20.27;9.93;;;;;;;;;;4939636;29;20469;-61
2022/01/19 07:13:07;;;;;;;18.75;9.68;;;;;;;;;;4947405;29;20071;-61
2022/01/19 07:15:33;;;;;;;19.38;9.73;;;;;;;;;;4946697;29;20134;-62
2022/01/19 07:18:00;;;;;;;22.48;10.60;;;;;;;;;;4941427;29;20044;-62
2022/01/19 07:20:28;;;;;;;22.88;8.60;;;;;;;;;;4936831;29;20126;-61
2022/01/19 07:22:56;;;;;;;27.88;11.70;;;;;;;;;;4942088;29;20574;-61
2022/01/19 07:25:23;;;;;;;17.65;9.70;;;;;;;;;;4936279;29;20090;-62
2022/01/19 07:27:50;;;;;;;22.60;9.20;;;;;;;;;;4939668;29;20134;-61
2022/01/19 07:30:17;;;;;;;21.65;10.23;;;;;;;;;;4947241;29;20503;-61
2022/01/19 07:32:44;;;;;;;20.30;10.13;;;;;;;;;;4945563;29;20062;-61
2022/01/19 07:35:11;;;;;;;25.55;10.40;;;;;;;;;;4937939;29;20054;-61
2022/01/19 07:37:39;;;;;;;24.25;9.68;;;;;;;;;;4944765;29;20081;-61
2022/01/19 07:40:06;;;;;;;21.90;10.75;;;;;;;;;;4941346;29;20070;-62
2022/01/19 07:42:33;;;;;;;24.15;10.25;;;;;;;;;;4945894;29;20424;-61
2022/01/19 07:44:59;;;;;;;23.75;10.20;;;;;;;;;;4945443;28;20507;-61
2022/01/19 07:47:27;;;;;;;20.67;9.73;;;;;;;;;;4949798;28;20086;-62
2022/01/19 07:49:54;;;;;;;18.70;10.90;;;;;;;;;;4943939;29;20079;-61
2022/01/19 07:52:22;;;;;;;21.88;11.88;;;;;;;;;;4942679;29;20075;-62
2022/01/19 07:54:50;;;;;;;17.48;8.88;;;;;;;;;;4924777;29;20091;-61
2022/01/19 07:57:16;;;;;;;20.48;11.00;;;;;;;;;;4935199;29;20142;-62
2022/01/19 07:59:43;;;;;;;22.10;10.70;;;;;;;;;;4946119;29;20090;-61
2022/01/19 08:02:11;;;;;;;19.48;10.13;;;;;;;;;;4944939;29;20070;-61
2022/01/19 08:04:38;;;;;;;17.52;10.38;;;;;;;;;;4936881;29;20498;-61
2022/01/19 08:07:04;;;;;;;23.70;11.40;;;;;;;;;;4941157;29;20134;-61
2022/01/19 08:09:31;;;;;;;20.17;9.73;;;;;;;;;;4934707;29;20083;-61
2022/01/19 08:11:59;;;;;;;22.33;10.63;;;;;;;;;;4946244;29;20079;-61
2022/01/19 08:14:26;;;;;;;22.00;11.38;;;;;;;;;;4943625;29;20134;-61
2022/01/19 08:16:53;;;;;;;22.33;11.50;;;;;;;;;;4939699;29;20071;-61
2022/01/19 08:19:19;;;;;;;20.05;10.90;;;;;;;;;;4935901;29;20051;-61
2022/01/19 08:21:53;;;;;;;21.02;11.05;;;;;;;;;;4945808;29;20051;-61
2022/01/19 08:24:20;;;;;;;27.75;13.90;;;;;;;;;;4937267;29;20090;-62
2022/01/19 08:26:46;;;;;;;22.90;11.57;;;;;;;;;;4936856;29;20298;-61
2022/01/19 08:29:14;;;;;;;23.80;12.73;;;;;;;;;;4938794;29;20560;-61
2022/01/19 08:31:41;;;;;;;24.00;12.55;;;;;;;;;;4942096;29;20552;-62
2022/01/19 08:34:07;;;;;;;26.25;13.52;;;;;;;;;;4941707;29;20078;-61
2022/01/19 08:36:34;;;;;;;24.27;11.40;;;;;;;;;;4943119;29;20103;-61
2022/01/19 08:39:01;;;;;;;24.83;13.00;;;;;;;;;;4936067;29;20067;-61
2022/01/19 08:41:27;;;;;;;24.05;13.48;;;;;;;;;;4945287;29;20091;-62
2022/01/19 08:43:54;;;;;;;22.98;14.05;;;;;;;;;;4941362;29;20075;-61
2022/01/19 08:46:22;;;;;;;23.65;12.77;;;;;;;;;;4942543;29;20079;-61
2022/01/19 08:48:49;;;;;;;23.88;12.32;;;;;;;;;;4947658;28;20075;-61
2022/01/19 08:51:15;;;;;;;21.48;12.02;;;;;;;;;;4939203;29;20079;-62
2022/01/19 08:53:42;;;;;;;23.98;12.20;;;;;;;;;;4943354;29;20147;-61
2022/01/19 08:56:09;;;;;;;21.40;11.82;;;;;;;;;;4935349;29;20190;-60
2022/01/19 08:58:36;;;;;;;25.80;13.93;;;;;;;;;;4939778;29;20130;-61
2022/01/19 09:01:02;;;;;;;22.42;11.63;;;;;;;;;;4944236;29;20126;-60
2022/01/19 09:03:31;;;;;;;24.20;13.40;;;;;;;;;;4949658;29;20133;-62
2022/01/19 09:05:58;;;;;;;25.60;13.68;;;;;;;;;;4941187;29;20150;-61
2022/01/19 09:08:24;;;;;;;18.90;10.95;;;;;;;;;;4947766;29;20543;-62
2022/01/19 09:10:53;;;;;;;20.55;11.13;;;;;;;;;;4943237;29;20138;-62
2022/01/19 09:13:20;;;;;;;19.27;11.68;;;;;;;;;;4926458;29;20058;-62
2022/01/19 09:15:46;;;;;;;20.30;12.23;;;;;;;;;;4942136;29;20134;-62
2022/01/19 09:18:13;;;;;;;20.52;11.70;;;;;;;;;;4943408;29;20122;-62
2022/01/19 09:20:41;;;;;;;19.20;11.40;;;;;;;;;;4924726;29;20484;-61
2022/01/19 09:23:07;;;;;;;20.45;11.48;;;;;;;;;;4946750;29;20043;-61
2022/01/19 09:25:34;;;;;;;20.55;11.73;;;;;;;;;;4938809;29;20067;-61
2022/01/19 09:28:01;;;;;;;22.75;11.95;;;;;;;;;;4942199;29;20551;-61
2022/01/19 09:30:28;;;;;;;19.27;11.68;;;;;;;;;;4942742;29;20130;-61
2022/01/19 09:33:06;;;;;;;17.02;11.30;;;;;;;;;;4949974;29;20142;-61
2022/01/19 09:35:50;;;;;;;20.00;11.45;;;;;;;;;;4943300;29;20048;-61
2022/01/19 09:38:18;;;;;;;21.70;12.30;;;;;;;;;;4927415;29;20047;-62
2022/01/19 09:40:44;;;;;;;19.77;11.60;;;;;;;;;;4946545;29;20101;-62
2022/01/19 09:43:11;;;;;;;20.45;11.32;;;;;;;;;;4922773;29;20126;-62
2022/01/19 09:45:38;;;;;;;20.42;11.85;;;;;;;;;;4948391;29;20458;-59
2022/01/19 09:48:05;;;;;;;18.45;11.32;;;;;;;;;;4942035;28;20499;-61
2022/01/19 09:50:32;;;;;;;20.38;11.68;;;;;;;;;;4941581;29;20135;-62
2022/01/19 09:53:00;;;;;;;21.45;11.35;;;;;;;;;;4943946;29;20126;-62
2022/01/19 09:55:28;;;;;;;21.88;11.30;;;;;;;;;;4949870;29;20471;-62
2022/01/19 09:57:54;;;;;;;18.60;12.82;;;;;;;;;;4943090;29;20127;-61
2022/01/19 10:00:21;;;;;;;20.55;10.73;;;;;;;;;;4946074;29;20047;-63
2022/01/19 10:03:12;;;;;;;26.88;14.57;;;;;;;;;;4943259;29;20094;-63
2022/01/19 10:05:47;;;;;;;21.42;12.18;;;;;;;;;;4940322;29;20122;-62
2022/01/19 10:08:13;;;;;;;23.37;11.90;;;;;;;;;;4942335;29;20126;-62
2022/01/19 10:10:42;;;;;;;19.75;11.55;;;;;;;;;;4939943;29;20138;-62
2022/01/19 10:18:46;;;;;;;18.20;10.18;;;;;;;;;;4950459;29;20451;-62
2022/01/19 10:21:16;;;;;;;18.25;11.70;;;;;;;;;;4941894;29;20539;-62
2022/01/19 10:23:46;;;;;;;17.38;10.45;;;;;;;;;;4948844;29;20035;-62
2022/01/19 10:26:15;;;;;;;16.25;10.98;;;;;;;;;;4935699;29;20060;-62
2022/01/19 10:28:56;;;;;;;17.95;10.25;;;;;;;;;;4947220;29;20150;-62
2022/01/19 10:31:23;;;;;;;21.52;11.27;;;;;;;;;;4937887;29;20183;-62
2022/01/19 10:34:11;;;;;;;20.60;11.82;;;;;;;;;;4941720;29;20065;-61
2022/01/19 10:36:42;;;;;;;22.63;11.45;;;;;;;;;;4949828;29;20125;-62
2022/01/19 10:39:09;;;;;;;21.35;12.43;;;;;;;;;;4946954;29;20046;-62
2022/01/19 10:41:57;;;;;;;20.48;12.43;;;;;;;;;;4942764;29;20070;-61
2022/01/19 10:44:30;;;;;;;19.75;12.13;;;;;;;;;;4937300;29;20118;-62
2022/01/19 10:46:56;;;;;;;22.08;11.82;;;;;;;;;;4941566;29;20133;-61
2022/01/19 10:49:23;;;;;;;21.25;12.00;;;;;;;;;;4946112;29;20055;-61
2022/01/19 10:51:56;;;;;;;18.80;11.70;;;;;;;;;;4942284;29;20142;-62
2022/01/19 10:54:26;;;;;;;21.20;12.02;;;;;;;;;;4940014;29;20126;-61
2022/01/19 10:56:57;;;;;;;22.05;11.60;;;;;;;;;;4937423;29;20051;-62
2022/01/19 10:59:26;;;;;;;18.77;12.73;;;;;;;;;;4939217;29;20035;-61
2022/01/19 11:01:55;;;;;;;24.42;14.43;;;;;;;;;;4944477;29;20130;-62
2022/01/19 11:04:25;;;;;;;23.35;13.68;;;;;;;;;;4941337;29;20121;-63
2022/01/19 11:06:54;;;;;;;21.58;13.23;;;;;;;;;;4944644;29;20130;-63
2022/01/19 11:09:24;;;;;;;18.67;12.43;;;;;;;;;;4938104;29;20131;-62
2022/01/19 11:11:51;;;;;;;21.08;12.63;;;;;;;;;;4937662;29;20111;-63
2022/01/19 11:14:20;;;;;;;20.02;12.43;;;;;;;;;;4940446;29;20039;-63
2022/01/19 11:16:48;;;;;;;18.80;11.93;;;;;;;;;;4941147;29;20054;-63
2022/01/19 11:19:14;;;;;;;22.10;12.90;;;;;;;;;;4942947;29;20380;-63
2022/01/19 11:21:48;;;;;;;19.65;12.45;;;;;;;;;;4942458;29;20440;-63
2022/01/19 11:24:21;;;;;;;22.70;12.40;;;;;;;;;;4938723;29;20127;-63
2022/01/19 11:26:48;;;;;;;22.35;12.05;;;;;;;;;;4945376;29;20056;-63
2022/01/19 11:29:18;;;;;;;21.13;12.88;;;;;;;;;;4946365;29;20071;-63
2022/01/19 11:31:47;;;;;;;20.02;12.07;;;;;;;;;;4943407;29;20062;-63
2022/01/19 11:34:13;;;;;;;18.20;12.20;;;;;;;;;;4940625;29;20122;-63
2022/01/19 11:36:42;;;;;;;22.58;13.30;;;;;;;;;;4941578;29;20134;-62
2022/01/19 11:39:11;;;;;;;20.60;12.43;;;;;;;;;;4941597;29;20048;-62
2022/01/19 11:41:46;;;;;;;20.42;12.45;;;;;;;;;;4941754;29;20127;-62
2022/01/19 11:44:17;;;;;;;19.52;12.13;;;;;;;;;;4943402;29;20094;-63
2022/01/19 11:46:48;;;;;;;17.00;11.85;;;;;;;;;;4941850;29;20468;-62
2022/01/19 11:49:17;;;;;;;21.05;12.80;;;;;;;;;;4944181;29;20424;-62
2022/01/19 11:51:44;;;;;;;20.13;11.10;;;;;;;;;;4944227;29;20102;-63
2022/01/19 11:54:15;;;;;;;20.13;12.60;;;;;;;;;;4945341;29;20527;-63
2022/01/19 11:57:05;;;;;;;20.60;12.35;;;;;;;;;;4945088;29;20143;-63
2022/01/19 11:59:34;;;;;;;19.92;11.90;;;;;;;;;;4950053;29;20423;-63
2022/01/19 12:02:37;;;;;;;20.08;12.65;;;;;;;;;;4929384;29;20515;-63
2022/01/19 12:05:17;;;;;;;19.73;12.00;;;;;;;;;;4939719;29;20051;-63
2022/01/19 12:07:45;;;;;;;18.48;11.30;;;;;;;;;;4943382;29;20451;-63
2022/01/19 12:10:13;;;;;;;18.27;11.35;;;;;;;;;;4943492;29;20478;-62
2022/01/19 12:12:47;;;;;;;19.33;12.10;;;;;;;;;;4937356;29;20661;-62
2022/01/19 12:15:49;;;;;;;20.05;12.20;;;;;;;;;;4946284;29;20035;-62
2022/01/19 12:18:37;;;;;;;20.63;11.65;;;;;;;;;;4944980;29;20050;-63
2022/01/19 12:21:05;;;;;;;21.05;12.07;;;;;;;;;;4941458;29;20134;-62
2022/01/19 12:23:34;;;;;;;19.67;11.55;;;;;;;;;;4942589;29;20495;-62
2022/01/19 12:26:02;;;;;;;19.35;10.77;;;;;;;;;;4942923;29;20047;-61
2022/01/19 12:28:42;;;;;;;17.70;10.98;;;;;;;;;;4919582;29;20158;-63
2022/01/19 12:31:31;;;;;;;20.73;11.98;;;;;;;;;;4941856;29;20131;-62
2022/01/19 12:34:20;;;;;;;17.10;11.80;;;;;;;;;;4943304;29;20127;-63
2022/01/19 12:36:51;;;;;;;18.92;11.52;;;;;;;;;;4946913;29;20055;-62
2022/01/19 12:39:44;;;;;;;18.38;10.45;;;;;;;;;;4946471;29;20049;-63
2022/01/19 12:42:19;;;;;;;16.90;10.63;;;;;;;;;;4945165;29;20142;-63
2022/01/19 12:44:48;;;;;;;17.20;10.35;;;;;;;;;;4946559;29;21195;-63
2022/01/19 12:47:46;;;;;;;17.95;10.77;;;;;;;;;;4945079;29;20078;-63
2022/01/19 12:50:45;;;;;;;17.15;11.05;;;;;;;;;;4948601;29;20142;-63
2022/01/19 12:53:20;;;;;;;16.08;9.43;;;;;;;;;;4928065;29;20058;-64
2022/01/19 12:55:49;;;;;;;16.92;11.20;;;;;;;;;;4952163;29;20074;-63
2022/01/19 12:58:20;;;;;;;18.60;11.10;;;;;;;;;;4942116;29;20150;-63
2022/01/19 13:00:49;;;;;;;16.50;11.13;;;;;;;;;;4950696;29;20102;-63
2022/01/19 13:03:22;;;;;;;17.98;10.15;;;;;;;;;;4948244;29;20451;-63
2022/01/19 13:05:55;;;;;;;17.40;11.60;;;;;;;;;;4943423;29;20122;-63
2022/01/19 13:08:37;;;;;;;18.90;10.45;;;;;;;;;;4944287;29;20131;-63
2022/01/19 13:11:25;;;;;;;15.30;9.60;;;;;;;;;;4946007;29;20079;-63
2022/01/19 13:14:01;;;;;;;15.95;10.23;;;;;;;;;;4948249;29;20464;-63
2022/01/19 13:16:30;;;;;;;14.75;10.10;;;;;;;;;;4945068;29;20306;-63
2022/01/19 13:19:02;;;;;;;15.43;9.88;;;;;;;;;;4948105;29;20044;-63
2022/01/19 13:21:30;;;;;;;19.50;11.43;;;;;;;;;;4943733;29;20043;-63
2022/01/19 13:23:58;;;;;;;22.05;11.68;;;;;;;;;;4944068;29;20043;-63
2022/01/19 13:26:28;;;;;;;21.02;12.48;;;;;;;;;;4946612;29;20228;-62
2022/01/19 13:28:54;;;;;;;15.57;10.60;;;;;;;;;;4944641;29;20169;-62
2022/01/19 13:31:23;;;;;;;18.73;10.77;;;;;;;;;;4945940;29;20154;-63
2022/01/19 13:33:54;;;;;;;15.68;10.13;;;;;;;;;;4952064;29;20039;-63
2022/01/19 13:36:25;;;;;;;14.43;9.73;;;;;;;;;;4946621;29;20141;-63
2022/01/19 13:38:54;;;;;;;18.05;9.68;;;;;;;;;;4943694;29;20075;-63
2022/01/19 13:41:21;;;;;;;12.05;9.20;;;;;;;;;;4940901;28;20087;-62
2022/01/19 13:43:48;;;;;;;16.38;10.27;;;;;;;;;;4950855;29;20118;-63
2022/01/19 13:46:21;;;;;;;16.63;8.93;;;;;;;;;;4938432;29;20583;-63
2022/01/19 13:48:55;;;;;;;14.82;9.15;;;;;;;;;;4943491;29;20098;-63
2022/01/19 13:51:24;;;;;;;18.10;9.00;;;;;;;;;;4943804;29;20118;-63
2022/01/19 13:53:53;;;;;;;14.55;9.68;;;;;;;;;;4945914;29;20051;-63
2022/01/19 13:56:26;;;;;;;14.18;8.82;;;;;;;;;;4945258;29;20476;-63
2022/01/19 13:58:56;;;;;;;14.35;9.35;;;;;;;;;;4940117;29;20481;-63
2022/01/19 14:01:33;;;;;;;13.77;9.63;;;;;;;;;;4945090;29;20122;-63
2022/01/19 14:04:05;;;;;;;18.50;11.15;;;;;;;;;;4948655;29;20138;-63
2022/01/19 14:06:33;;;;;;;16.00;9.85;;;;;;;;;;4941101;29;20574;-63
2022/01/19 14:09:18;;;;;;;13.60;9.27;;;;;;;;;;4947497;28;20154;-63
2022/01/19 14:11:46;;;;;;;13.77;8.27;;;;;;;;;;4944873;29;20293;-63
2022/01/19 14:14:14;;;;;;;15.68;8.93;;;;;;;;;;4949805;29;20051;-63
2022/01/19 14:16:45;;;;;;;12.25;9.10;;;;;;;;;;4940703;29;20134;-63
2022/01/19 14:19:19;;;;;;;13.75;8.52;;;;;;;;;;4950612;29;20130;-63
2022/01/19 14:22:07;;;;;;;14.52;8.32;;;;;;;;;;4943246;29;20078;-63
2022/01/19 14:24:48;;;;;;;14.77;9.40;;;;;;;;;;4943490;29;20420;-63
2022/01/19 14:27:16;;;;;;;16.27;9.82;;;;;;;;;;4950023;29;20122;-63
2022/01/19 14:29:57;;;;;;;15.93;9.23;;;;;;;;;;4942174;29;20383;-63
2022/01/19 14:32:37;;;;;;;14.35;8.80;;;;;;;;;;4941016;29;20412;-63
2022/01/19 14:35:31;;;;;;;14.32;8.73;;;;;;;;;;4942484;29;20115;-63
2022/01/19 14:38:04;;;;;;;16.27;8.95;;;;;;;;;;4940306;29;20138;-62
2022/01/19 14:40:33;;;;;;;14.80;9.82;;;;;;;;;;4946856;29;20083;-62
2022/01/19 14:43:00;;;;;;;14.30;9.38;;;;;;;;;;4938440;29;20127;-62
2022/01/19 14:45:35;;;;;;;15.32;9.77;;;;;;;;;;4947738;29;20480;-62
2022/01/19 14:48:13;;;;;;;20.42;9.93;;;;;;;;;;4941835;29;20046;-62
2022/01/19 14:50:40;;;;;;;15.55;9.38;;;;;;;;;;4945088;29;20223;-62
2022/01/19 14:53:06;;;;;;;14.68;9.05;;;;;;;;;;4945646;28;20134;-62
2022/01/19 14:55:37;;;;;;;18.77;10.45;;;;;;;;;;4944664;29;20131;-62
2022/01/19 14:58:05;;;;;;;15.05;9.07;;;;;;;;;;4945329;29;20143;-62
2022/01/19 15:00:34;;;;;;;16.27;9.60;;;;;;;;;;4945134;29;20552;-62
2022/01/19 15:03:02;;;;;;;18.30;10.32;;;;;;;;;;4948535;29;20159;-62
2022/01/19 15:05:30;;;;;;;16.23;10.23;;;;;;;;;;4936609;29;20166;-63
2022/01/19 15:07:57;;;;;;;20.45;11.10;;;;;;;;;;4937602;29;20070;-62
2022/01/19 15:10:25;;;;;;;22.17;11.63;;;;;;;;;;4940381;29;20131;-62
2022/01/19 15:12:53;;;;;;;17.83;9.90;;;;;;;;;;4942834;29;20450;-62
2022/01/19 15:15:23;;;;;;;18.92;10.32;;;;;;;;;;4939121;29;20046;-62
2022/01/19 15:17:50;;;;;;;21.52;10.82;;;;;;;;;;4939027;29;20059;-62
2022/01/19 15:20:18;;;;;;;18.17;10.60;;;;;;;;;;4943137;29;20043;-62
2022/01/19 15:22:45;;;;;;;20.00;11.32;;;;;;;;;;4943511;29;20122;-62
2022/01/19 15:25:13;;;;;;;17.60;11.13;;;;;;;;;;4945182;29;20133;-62
2022/01/19 15:27:39;;;;;;;17.65;10.65;;;;;;;;;;4942043;29;20640;-62
2022/01/19 15:30:09;;;;;;;17.63;10.90;;;;;;;;;;4943801;29;20540;-60
2022/01/19 15:32:36;;;;;;;19.98;11.02;;;;;;;;;;4947724;29;20079;-62
2022/01/19 15:35:03;;;;;;;22.85;11.38;;;;;;;;;;4947493;29;20126;-62
2022/01/19 15:37:29;;;;;;;20.73;12.52;;;;;;;;;;4940248;29;20139;-62
2022/01/19 15:39:56;;;;;;;19.02;10.93;;;;;;;;;;4944708;29;20044;-62
2022/01/19 15:42:23;;;;;;;19.98;11.80;;;;;;;;;;4924048;29;20067;-62
2022/01/19 15:44:49;;;;;;;19.55;11.57;;;;;;;;;;4942638;29;20137;-62
2022/01/19 15:47:19;;;;;;;18.70;11.65;;;;;;;;;;4944814;28;20074;-62